createdAt,value
2018-06-10T00:00:51.809Z,16.67
2018-06-10T00:01:52.070Z,16.7
2018-06-10T00:02:51.545Z,16.69
2018-06-10T00:03:51.799Z,16.69
2018-06-10T00:04:52.054Z,16.59
2018-06-10T00:05:52.048Z,16.59
2018-06-10T00:06:51.794Z,16.62
2018-06-10T00:07:52.040Z,16.62
2018-06-10T00:08:52.036Z,16.59
2018-06-10T00:09:52.036Z,16.51
2018-06-10T00:10:52.041Z,16.47
2018-06-10T00:11:51.512Z,16.45
2018-06-10T00:12:51.768Z,16.47
2018-06-10T00:13:52.021Z,16.45
2018-06-10T00:14:52.021Z,16.48
2018-06-10T00:15:51.755Z,16.34
2018-06-10T00:16:52.014Z,16.42
2018-06-10T00:17:52.008Z,16.44
2018-06-10T00:18:51.745Z,16.36
2018-06-10T00:19:52.002Z,16.34
2018-06-10T00:20:52.005Z,16.44
2018-06-10T00:21:51.738Z,16.36
2018-06-10T00:22:51.731Z,16.37
2018-06-10T00:23:51.732Z,16.34
2018-06-10T00:24:51.985Z,16.27
2018-06-10T00:25:51.975Z,16.27
2018-06-10T00:26:51.981Z,16.29
2018-06-10T00:27:51.971Z,16.34
2018-06-10T00:28:51.706Z,16.29
2018-06-10T00:29:51.966Z,16.29
2018-06-10T00:30:51.965Z,16.36
2018-06-10T00:31:51.707Z,16.37
2018-06-10T00:32:51.956Z,16.29
2018-06-10T00:33:51.434Z,16.29
2018-06-10T00:34:51.692Z,16.32
2018-06-10T00:35:51.940Z,16.29
2018-06-10T00:36:51.937Z,16.21
2018-06-10T00:37:51.931Z,16.18
2018-06-10T00:38:51.672Z,16.34
2018-06-10T00:39:51.931Z,16.27
2018-06-10T00:40:51.920Z,16.25
2018-06-10T00:41:51.667Z,16.27
2018-06-10T00:42:51.658Z,16.21
2018-06-10T00:43:51.653Z,16.29
2018-06-10T00:44:51.904Z,16.29
2018-06-10T00:45:51.904Z,16.25
2018-06-10T00:46:51.909Z,16.27
2018-06-10T00:47:51.638Z,16.25
2018-06-10T00:48:51.634Z,16.22
2018-06-10T00:49:51.895Z,16.25
2018-06-10T00:50:51.634Z,16.16
2018-06-10T00:51:51.880Z,16.17
2018-06-10T00:52:51.879Z,16.1
2018-06-10T00:53:51.872Z,16.11
2018-06-10T00:54:51.356Z,16.02
2018-06-10T00:55:51.613Z,15.96
2018-06-10T00:56:51.602Z,16
2018-06-10T00:57:51.857Z,15.93
2018-06-10T00:58:51.599Z,15.96
2018-06-10T00:59:51.593Z,15.95
2018-06-10T01:00:51.594Z,15.98
2018-06-10T01:01:51.848Z,15.89
2018-06-10T01:02:51.836Z,15.86
2018-06-10T01:03:51.580Z,15.86
2018-06-10T01:04:51.832Z,15.88
2018-06-10T01:05:51.834Z,15.81
2018-06-10T01:06:51.568Z,15.86
2018-06-10T01:07:51.565Z,15.89
2018-06-10T01:08:51.815Z,15.81
2018-06-10T01:09:51.552Z,15.77
2018-06-10T01:10:51.292Z,15.73
2018-06-10T01:11:51.808Z,15.7
2018-06-10T01:12:51.546Z,15.74
2018-06-10T01:13:51.282Z,15.71
2018-06-10T01:14:51.276Z,15.71
2018-06-10T01:15:51.527Z,15.65
2018-06-10T01:16:51.788Z,15.68
2018-06-10T01:17:51.263Z,15.65
2018-06-10T01:18:51.774Z,15.74
2018-06-10T01:19:51.769Z,15.74
2018-06-10T01:20:51.767Z,15.71
2018-06-10T01:21:51.760Z,15.68
2018-06-10T01:22:51.764Z,15.73
2018-06-10T01:23:51.495Z,15.62
2018-06-10T01:24:51.494Z,15.68
2018-06-10T01:25:51.231Z,15.63
2018-06-10T01:26:51.492Z,15.63
2018-06-10T01:27:51.738Z,15.63
2018-06-10T01:28:51.740Z,15.62
2018-06-10T01:29:51.732Z,15.56
2018-06-10T01:30:51.725Z,15.59
2018-06-10T01:31:51.721Z,15.63
2018-06-10T01:32:51.719Z,15.63
2018-06-10T01:33:51.462Z,15.62
2018-06-10T01:34:51.454Z,15.53
2018-06-10T01:35:51.451Z,15.55
2018-06-10T01:36:51.440Z,15.52
2018-06-10T01:37:51.696Z,15.56
2018-06-10T01:38:51.700Z,15.53
2018-06-10T01:39:51.432Z,15.56
2018-06-10T01:40:51.680Z,15.52
2018-06-10T01:41:51.687Z,15.49
2018-06-10T01:42:51.418Z,15.56
2018-06-10T01:43:51.416Z,15.56
2018-06-10T01:44:51.150Z,15.59
2018-06-10T01:45:51.405Z,15.59
2018-06-10T01:46:51.663Z,15.49
2018-06-10T01:47:51.398Z,15.53
2018-06-10T01:48:51.136Z,15.52
2018-06-10T01:49:51.646Z,15.58
2018-06-10T01:50:51.387Z,15.6
2018-06-10T01:51:51.637Z,15.52
2018-06-10T01:52:51.642Z,15.59
2018-06-10T01:53:51.374Z,15.47
2018-06-10T01:54:51.369Z,15.49
2018-06-10T01:55:51.625Z,15.52
2018-06-10T01:56:51.625Z,15.49
2018-06-10T01:57:51.608Z,15.45
2018-06-10T01:58:51.605Z,15.45
2018-06-10T01:59:51.347Z,15.52
2018-06-10T02:00:51.392Z,15.53
2018-06-10T02:01:51.625Z,15.52
2018-06-10T02:02:51.597Z,15.52
2018-06-10T02:03:51.330Z,15.49
2018-06-10T02:04:51.590Z,15.45
2018-06-10T02:05:51.062Z,15.49
2018-06-10T02:06:51.061Z,15.49
2018-06-10T02:07:51.567Z,15.53
2018-06-10T02:08:51.567Z,15.53
2018-06-10T02:09:51.302Z,15.51
2018-06-10T02:10:51.297Z,15.56
2018-06-10T02:11:51.555Z,15.59
2018-06-10T02:12:51.288Z,15.47
2018-06-10T02:13:51.543Z,15.52
2018-06-10T02:14:51.540Z,15.59
2018-06-10T02:15:51.537Z,15.6
2018-06-10T02:16:51.530Z,15.59
2018-06-10T02:17:51.268Z,15.74
2018-06-10T02:18:51.269Z,15.73
2018-06-10T02:19:51.258Z,15.77
2018-06-10T02:20:50.999Z,15.8
2018-06-10T02:21:51.252Z,15.8
2018-06-10T02:22:51.506Z,15.83
2018-06-10T02:23:51.255Z,15.86
2018-06-10T02:24:51.243Z,15.84
2018-06-10T02:25:51.501Z,15.96
2018-06-10T02:26:51.230Z,15.99
2018-06-10T02:27:51.490Z,15.96
2018-06-10T02:28:51.220Z,15.99
2018-06-10T02:29:51.481Z,15.95
2018-06-10T02:30:51.218Z,15.93
2018-06-10T02:31:51.480Z,16.07
2018-06-10T02:32:50.950Z,16.06
2018-06-10T02:33:51.206Z,16.14
2018-06-10T02:34:51.465Z,16.14
2018-06-10T02:35:51.452Z,16.08
2018-06-10T02:36:51.462Z,16.16
2018-06-10T02:37:51.191Z,16.14
2018-06-10T02:38:51.449Z,16.1
2018-06-10T02:39:51.181Z,16.17
2018-06-10T02:40:50.918Z,16.26
2018-06-10T02:41:51.431Z,16.27
2018-06-10T02:42:51.167Z,16.21
2018-06-10T02:43:51.435Z,16.33
2018-06-10T02:44:51.412Z,16.11
2018-06-10T02:45:51.409Z,16.27
2018-06-10T02:46:51.413Z,16.26
2018-06-10T02:47:51.405Z,16.27
2018-06-10T02:48:51.400Z,16.29
2018-06-10T02:49:51.140Z,16.32
2018-06-10T02:50:51.132Z,16.22
2018-06-10T02:51:51.139Z,16.32
2018-06-10T02:52:50.868Z,16.26
2018-06-10T02:53:51.388Z,16.25
2018-06-10T02:54:51.125Z,16.32
2018-06-10T02:55:51.372Z,16.33
2018-06-10T02:56:50.852Z,16.33
2018-06-10T02:57:51.365Z,16.32
2018-06-10T02:58:51.100Z,16.3
2018-06-10T02:59:51.350Z,16.29
2018-06-10T03:00:51.097Z,16.32
2018-06-10T03:01:51.090Z,16.36
2018-06-10T03:02:51.369Z,16.36
2018-06-10T03:03:51.136Z,16.34
2018-06-10T03:04:51.077Z,16.39
2018-06-10T03:05:50.821Z,16.37
2018-06-10T03:06:51.069Z,16.4
2018-06-10T03:07:51.425Z,16.47
2018-06-10T03:08:51.064Z,16.49
2018-06-10T03:09:51.322Z,16.45
2018-06-10T03:10:51.067Z,16.44
2018-06-10T03:11:51.051Z,16.47
2018-06-10T03:12:51.045Z,16.51
2018-06-10T03:13:51.044Z,16.51
2018-06-10T03:14:51.301Z,16.58
2018-06-10T03:15:51.037Z,16.59
2018-06-10T03:16:51.294Z,16.63
2018-06-10T03:17:51.023Z,16.62
2018-06-10T03:18:51.021Z,16.69
2018-06-10T03:19:50.760Z,16.65
2018-06-10T03:20:51.014Z,16.72
2018-06-10T03:21:51.272Z,16.7
2018-06-10T03:22:51.265Z,16.69
2018-06-10T03:23:50.748Z,16.66
2018-06-10T03:24:51.004Z,16.7
2018-06-10T03:25:51.251Z,16.72
2018-06-10T03:26:51.253Z,16.69
2018-06-10T03:27:51.249Z,16.73
2018-06-10T03:28:51.239Z,16.7
2018-06-10T03:29:50.724Z,16.7
2018-06-10T03:30:51.245Z,16.73
2018-06-10T03:31:50.975Z,16.73
2018-06-10T03:32:50.974Z,16.7
2018-06-10T03:33:51.228Z,16.72
2018-06-10T03:34:51.219Z,16.76
2018-06-10T03:35:50.961Z,16.8
2018-06-10T03:36:50.955Z,16.77
2018-06-10T03:37:50.958Z,16.77
2018-06-10T03:38:50.692Z,16.77
2018-06-10T03:39:51.203Z,16.77
2018-06-10T03:40:50.940Z,16.84
2018-06-10T03:41:51.198Z,16.84
2018-06-10T03:42:51.188Z,16.82
2018-06-10T03:43:51.183Z,16.87
2018-06-10T03:44:51.182Z,16.87
2018-06-10T03:45:50.933Z,16.84
2018-06-10T03:46:51.179Z,16.94
2018-06-10T03:47:51.173Z,16.94
2018-06-10T03:48:51.170Z,16.99
2018-06-10T03:49:50.907Z,16.97
2018-06-10T03:50:50.908Z,17
2018-06-10T03:51:50.900Z,16.97
2018-06-10T03:52:51.151Z,17
2018-06-10T03:53:50.900Z,16.95
2018-06-10T03:54:51.148Z,16.88
2018-06-10T03:55:51.153Z,16.95
2018-06-10T03:56:50.884Z,17.03
2018-06-10T03:57:50.622Z,17.03
2018-06-10T03:58:50.883Z,17.09
2018-06-10T03:59:51.133Z,17.03
2018-06-10T04:00:51.134Z,17.12
2018-06-10T04:01:50.875Z,17.06
2018-06-10T04:02:51.127Z,17.06
2018-06-10T04:03:51.115Z,17.13
2018-06-10T04:04:51.119Z,17.15
2018-06-10T04:05:50.595Z,17.2
2018-06-10T04:06:50.855Z,17.17
2018-06-10T04:07:50.853Z,17.2
2018-06-10T04:08:50.857Z,17.24
2018-06-10T04:09:50.839Z,17.25
2018-06-10T04:10:51.099Z,17.28
2018-06-10T04:11:50.836Z,17.28
2018-06-10T04:12:50.575Z,17.22
2018-06-10T04:13:51.092Z,17.25
2018-06-10T04:14:51.076Z,17.22
2018-06-10T04:15:50.824Z,17.25
2018-06-10T04:16:50.817Z,17.25
2018-06-10T04:17:50.813Z,17.24
2018-06-10T04:18:51.069Z,17.22
2018-06-10T04:19:51.065Z,17.36
2018-06-10T04:20:50.809Z,17.36
2018-06-10T04:21:50.545Z,17.3
2018-06-10T04:22:51.113Z,17.38
2018-06-10T04:23:51.055Z,17.31
2018-06-10T04:24:51.055Z,17.31
2018-06-10T04:25:51.043Z,17.2
2018-06-10T04:26:51.043Z,17.21
2018-06-10T04:27:50.786Z,17.22
2018-06-10T04:28:50.522Z,17.21
2018-06-10T04:29:50.777Z,17.27
2018-06-10T04:30:51.034Z,17.21
2018-06-10T04:31:50.776Z,17.4
2018-06-10T04:32:50.770Z,17.35
2018-06-10T04:33:50.766Z,17.3
2018-06-10T04:34:50.760Z,17.28
2018-06-10T04:35:51.022Z,17.38
2018-06-10T04:36:50.754Z,17.43
2018-06-10T04:37:50.757Z,17.36
2018-06-10T04:38:50.752Z,17.31
2018-06-10T04:39:50.745Z,17.45
2018-06-10T04:40:51.006Z,17.46
2018-06-10T04:41:50.993Z,17.52
2018-06-10T04:42:50.995Z,17.45
2018-06-10T04:43:50.732Z,17.58
2018-06-10T04:44:50.992Z,17.49
2018-06-10T04:45:50.982Z,17.55
2018-06-10T04:46:50.728Z,17.54
2018-06-10T04:47:50.977Z,17.55
2018-06-10T04:48:50.722Z,17.6
2018-06-10T04:49:50.719Z,17.63
2018-06-10T04:50:50.716Z,17.65
2018-06-10T04:51:50.717Z,17.65
2018-06-10T04:52:50.712Z,17.65
2018-06-10T04:53:50.967Z,17.71
2018-06-10T04:54:50.447Z,17.73
2018-06-10T04:55:50.958Z,17.77
2018-06-10T04:56:50.954Z,17.83
2018-06-10T04:57:50.702Z,17.84
2018-06-10T04:58:50.950Z,17.81
2018-06-10T04:59:50.949Z,17.94
2018-06-10T05:00:50.943Z,17.9
2018-06-10T05:01:50.687Z,17.87
2018-06-10T05:02:50.938Z,18.05
2018-06-10T05:03:50.680Z,18.11
2018-06-10T05:04:50.937Z,18.02
2018-06-10T05:05:50.674Z,18.16
2018-06-10T05:06:50.928Z,18.2
2018-06-10T05:07:50.671Z,18.19
2018-06-10T05:08:50.921Z,18.27
2018-06-10T05:09:50.920Z,18.23
2018-06-10T05:10:50.659Z,18.36
2018-06-10T05:11:50.395Z,18.32
2018-06-10T05:12:50.652Z,18.36
2018-06-10T05:13:50.902Z,18.36
2018-06-10T05:14:50.905Z,18.42
2018-06-10T05:15:50.646Z,18.44
2018-06-10T05:16:50.644Z,18.53
2018-06-10T05:17:50.641Z,18.51
2018-06-10T05:18:50.895Z,18.54
2018-06-10T05:19:51.334Z,18.47
2018-06-10T05:20:50.635Z,18.56
2018-06-10T05:21:50.652Z,18.61
2018-06-10T05:22:50.631Z,18.59
2018-06-10T05:23:50.882Z,18.68
2018-06-10T05:24:50.623Z,18.65
2018-06-10T05:25:50.880Z,18.74
2018-06-10T05:26:50.879Z,18.75
2018-06-10T05:27:50.615Z,18.81
2018-06-10T05:28:50.620Z,18.93
2018-06-10T05:29:50.872Z,18.97
2018-06-10T05:30:50.352Z,18.99
2018-06-10T05:31:50.610Z,19.06
2018-06-10T05:32:50.863Z,19.16
2018-06-10T05:33:50.609Z,19.25
2018-06-10T05:34:50.604Z,19.27
2018-06-10T05:35:50.601Z,19.34
2018-06-10T05:36:50.862Z,19.52
2018-06-10T05:37:50.855Z,19.53
2018-06-10T05:38:50.593Z,19.52
2018-06-10T05:39:50.592Z,19.67
2018-06-10T05:40:50.848Z,19.7
2018-06-10T05:41:50.593Z,19.71
2018-06-10T05:42:50.597Z,19.83
2018-06-10T05:43:50.594Z,19.86
2018-06-10T05:44:50.846Z,19.89
2018-06-10T05:45:50.585Z,19.98
2018-06-10T05:46:50.582Z,20.04
2018-06-10T05:47:50.840Z,20.01
2018-06-10T05:48:50.322Z,20.02
2018-06-10T05:49:50.842Z,20.05
2018-06-10T05:50:50.580Z,20.11
2018-06-10T05:51:50.838Z,20.05
2018-06-10T05:52:50.833Z,20.19
2018-06-10T05:53:50.579Z,20.16
2018-06-10T05:54:50.831Z,20.16
2018-06-10T05:55:50.827Z,20.19
2018-06-10T05:56:50.830Z,20.25
2018-06-10T05:57:50.572Z,20.34
2018-06-10T05:58:50.313Z,20.23
2018-06-10T05:59:50.311Z,20.29
2018-06-10T06:00:50.827Z,20.4
2018-06-10T06:01:50.830Z,20.38
2018-06-10T06:02:50.821Z,20.53
2018-06-10T06:03:50.567Z,20.48
2018-06-10T06:04:50.563Z,20.53
2018-06-10T06:05:50.562Z,20.6
2018-06-10T06:06:50.819Z,20.64
2018-06-10T06:07:50.567Z,20.74
2018-06-10T06:08:50.307Z,20.78
2018-06-10T06:09:50.814Z,20.88
2018-06-10T06:10:50.562Z,20.9
2018-06-10T06:11:50.819Z,20.88
2018-06-10T06:12:50.302Z,21.04
2018-06-10T06:13:50.303Z,21.04
2018-06-10T06:14:50.828Z,21.18
2018-06-10T06:15:50.563Z,21.25
2018-06-10T06:16:50.298Z,21.3
2018-06-10T06:17:50.819Z,21.28
2018-06-10T06:18:50.821Z,21.34
2018-06-10T06:19:50.301Z,21.4
2018-06-10T06:20:50.298Z,21.41
2018-06-10T06:21:50.304Z,21.34
2018-06-10T06:22:50.826Z,21.45
2018-06-10T06:23:50.836Z,21.46
2018-06-10T06:24:50.569Z,21.49
2018-06-10T06:25:50.814Z,21.41
2018-06-10T06:26:50.812Z,21.43
2018-06-10T06:27:50.814Z,21.4
2018-06-10T06:28:50.820Z,21.41
2018-06-10T06:29:50.561Z,21.37
2018-06-10T06:30:50.560Z,21.41
2018-06-10T06:31:50.556Z,21.43
2018-06-10T06:32:50.559Z,21.37
2018-06-10T06:33:50.562Z,21.46
2018-06-10T06:34:50.817Z,21.37
2018-06-10T06:35:50.561Z,21.41
2018-06-10T06:36:50.830Z,21.45
2018-06-10T06:37:50.556Z,21.49
2018-06-10T06:38:50.817Z,21.37
2018-06-10T06:39:50.297Z,21.45
2018-06-10T06:40:50.813Z,21.41
2018-06-10T06:41:50.297Z,21.43
2018-06-10T06:42:50.554Z,21.34
2018-06-10T06:43:50.815Z,21.41
2018-06-10T06:44:50.557Z,21.45
2018-06-10T06:45:50.558Z,21.34
2018-06-10T06:46:50.820Z,21.27
2018-06-10T06:47:50.818Z,21.27
2018-06-10T06:48:50.561Z,21.25
2018-06-10T06:49:50.820Z,21.3
2018-06-10T06:50:50.562Z,21.25
2018-06-10T06:51:50.822Z,21.22
2018-06-10T06:52:50.603Z,21.25
2018-06-10T06:53:50.813Z,21.16
2018-06-10T06:54:50.814Z,21.19
2018-06-10T06:55:50.814Z,21.22
2018-06-10T06:56:50.560Z,21.16
2018-06-10T07:04:05.668Z,21.25
2018-06-10T07:04:50.816Z,21.33
2018-06-10T07:05:50.822Z,21.28
2018-06-10T07:06:50.554Z,21.31
2018-06-10T07:07:50.809Z,21.25
2018-06-10T07:08:50.808Z,21.27
2018-06-10T07:09:50.552Z,21.31
2018-06-10T07:10:50.822Z,21.38
2018-06-10T07:11:50.857Z,21.43
2018-06-10T07:12:50.813Z,21.48
2018-06-10T07:13:50.812Z,21.62
2018-06-10T07:14:50.807Z,21.74
2018-06-10T07:15:50.810Z,21.94
2018-06-10T07:16:50.808Z,22.08
2018-06-10T07:17:50.815Z,22.09
2018-06-10T07:18:50.806Z,22.14
2018-06-10T07:19:50.806Z,22.34
2018-06-10T07:20:50.554Z,22.41
2018-06-10T07:21:50.813Z,22.52
2018-06-10T07:22:50.814Z,22.6
2018-06-10T07:23:50.956Z,22.61
2018-06-10T07:24:50.818Z,22.75
2018-06-10T07:25:50.816Z,22.79
2018-06-10T07:26:50.824Z,22.86
2018-06-10T07:27:50.815Z,22.84
2018-06-10T07:28:50.564Z,22.75
2018-06-10T07:29:50.818Z,22.76
2018-06-10T07:30:50.568Z,22.75
2018-06-10T07:31:50.307Z,22.82
2018-06-10T07:32:50.562Z,22.78
2018-06-10T07:33:50.568Z,22.71
2018-06-10T07:34:50.312Z,22.73
2018-06-10T07:35:50.825Z,22.76
2018-06-10T07:36:50.825Z,22.84
2018-06-10T07:37:50.569Z,22.88
2018-06-10T07:38:50.572Z,22.85
2018-06-10T07:39:50.573Z,22.89
2018-06-10T07:40:50.575Z,22.88
2018-06-10T07:41:50.578Z,22.73
2018-06-10T07:42:50.830Z,22.79
2018-06-10T07:43:50.831Z,22.73
2018-06-10T07:44:50.833Z,22.7
2018-06-10T07:45:50.832Z,22.75
2018-06-10T07:46:50.580Z,22.89
2018-06-10T07:47:50.581Z,22.99
2018-06-10T07:48:50.845Z,23.04
2018-06-10T07:49:50.846Z,23.21
2018-06-10T07:50:50.840Z,23.34
2018-06-10T07:51:50.845Z,23.38
2018-06-10T07:52:50.585Z,23.47
2018-06-10T07:53:50.844Z,23.52
2018-06-10T07:54:50.867Z,23.59
2018-06-10T07:55:50.595Z,23.63
2018-06-10T07:56:50.595Z,23.67
2018-06-10T07:57:50.851Z,23.63
2018-06-10T07:58:50.597Z,23.74
2018-06-10T07:59:50.852Z,23.74
2018-06-10T08:00:50.600Z,23.78
2018-06-10T08:01:50.603Z,23.77
2018-06-10T08:02:50.855Z,23.84
2018-06-10T08:03:50.863Z,23.82
2018-06-10T08:04:50.864Z,23.82
2018-06-10T08:05:50.609Z,23.9
2018-06-10T08:06:50.868Z,23.77
2018-06-10T08:07:50.868Z,23.72
2018-06-10T08:08:50.868Z,23.75
2018-06-10T08:09:50.872Z,23.93
2018-06-10T08:10:50.879Z,23.89
2018-06-10T08:11:50.923Z,23.9
2018-06-10T08:12:50.640Z,23.89
2018-06-10T08:13:50.897Z,23.82
2018-06-10T08:14:50.881Z,23.84
2018-06-10T08:15:50.626Z,23.81
2018-06-10T08:16:50.906Z,23.7
2018-06-10T08:17:50.889Z,23.78
2018-06-10T08:18:51.193Z,23.75
2018-06-10T08:19:50.895Z,23.78
2018-06-10T08:20:50.907Z,23.75
2018-06-10T08:21:50.899Z,23.78
2018-06-10T08:22:50.644Z,23.96
2018-06-10T08:23:50.645Z,23.78
2018-06-10T08:24:50.903Z,23.84
2018-06-10T08:25:50.652Z,24.02
2018-06-10T08:26:50.918Z,24.12
2018-06-10T08:27:50.914Z,24.12
2018-06-10T08:28:50.918Z,24.15
2018-06-10T08:29:50.912Z,24.21
2018-06-10T08:30:50.919Z,24.3
2018-06-10T08:31:50.921Z,24.42
2018-06-10T08:32:50.929Z,24.58
2018-06-10T08:33:50.671Z,24.8
2018-06-10T08:34:50.947Z,24.97
2018-06-10T08:35:50.673Z,25.26
2018-06-10T08:36:50.939Z,25.52
2018-06-10T08:37:50.941Z,25.6
2018-06-10T08:38:50.937Z,25.74
2018-06-10T08:39:50.939Z,25.89
2018-06-10T08:40:50.940Z,25.93
2018-06-10T08:41:50.943Z,26.07
2018-06-10T08:42:50.700Z,26.24
2018-06-10T08:43:51.051Z,26.34
2018-06-10T08:44:50.705Z,26.27
2018-06-10T08:45:50.962Z,26.23
2018-06-10T08:46:50.964Z,26.31
2018-06-10T08:47:50.970Z,26.3
2018-06-10T08:48:50.718Z,26.35
2018-06-10T08:49:50.971Z,26.44
2018-06-10T08:50:50.989Z,26.41
2018-06-10T08:51:50.735Z,26.37
2018-06-10T08:52:50.985Z,26.38
2018-06-10T08:53:50.984Z,26.37
2018-06-10T08:54:50.990Z,26.38
2018-06-10T08:55:50.999Z,26.27
2018-06-10T08:56:51.012Z,26.2
2018-06-10T08:57:50.754Z,26.16
2018-06-10T08:58:50.491Z,26.19
2018-06-10T08:59:51.009Z,26.04
2018-06-10T09:00:51.019Z,25.93
2018-06-10T09:01:51.018Z,25.82
2018-06-10T09:02:50.918Z,25.85
2018-06-10T09:03:51.028Z,25.81
2018-06-10T09:04:50.778Z,25.7
2018-06-10T09:05:50.775Z,25.57
2018-06-10T09:06:51.036Z,25.49
2018-06-10T09:07:51.035Z,25.54
2018-06-10T09:08:51.347Z,25.42
2018-06-10T09:09:50.788Z,25.44
2018-06-10T09:10:50.794Z,25.51
2018-06-10T09:11:51.058Z,25.54
2018-06-10T09:12:51.074Z,25.41
2018-06-10T09:13:50.802Z,25.37
2018-06-10T09:14:51.189Z,25.47
2018-06-10T09:15:50.811Z,25.49
2018-06-10T09:16:51.072Z,25.45
2018-06-10T09:17:51.071Z,25.48
2018-06-10T09:18:51.078Z,25.54
2018-06-10T09:19:51.081Z,25.6
2018-06-10T09:20:51.081Z,25.52
2018-06-10T09:21:50.834Z,25.54
2018-06-10T09:22:51.093Z,25.71
2018-06-10T09:23:51.093Z,25.85
2018-06-10T09:24:51.097Z,25.81
2018-06-10T09:25:51.101Z,25.85
2018-06-10T09:26:51.103Z,25.81
2018-06-10T09:27:51.107Z,25.76
2018-06-10T09:28:51.210Z,25.91
2018-06-10T09:29:50.861Z,25.81
2018-06-10T09:30:51.119Z,25.88
2018-06-10T09:31:51.124Z,25.85
2018-06-10T09:32:51.130Z,25.82
2018-06-10T09:33:51.130Z,25.85
2018-06-10T09:34:51.131Z,25.94
2018-06-10T09:35:50.884Z,25.89
2018-06-10T09:36:51.145Z,25.89
2018-06-10T09:37:50.885Z,25.84
2018-06-10T09:38:51.148Z,25.97
2018-06-10T09:39:51.152Z,26.03
2018-06-10T09:40:50.899Z,26.09
2018-06-10T09:41:50.902Z,26.26
2018-06-10T09:42:50.652Z,26.19
2018-06-10T09:43:51.168Z,26.3
2018-06-10T09:44:50.923Z,26.22
2018-06-10T09:45:50.915Z,26.32
2018-06-10T09:46:50.922Z,26.38
2018-06-10T09:47:50.923Z,26.34
2018-06-10T09:48:50.925Z,26.42
2018-06-10T09:49:51.242Z,26.54
2018-06-10T09:50:50.948Z,26.78
2018-06-10T09:51:50.943Z,26.82
2018-06-10T09:52:51.206Z,26.74
2018-06-10T09:53:50.950Z,26.75
2018-06-10T09:54:51.211Z,26.69
2018-06-10T09:55:51.218Z,26.53
2018-06-10T09:56:51.214Z,26.57
2018-06-10T09:57:51.218Z,26.57
2018-06-10T09:58:51.229Z,26.47
2018-06-10T09:59:51.234Z,26.5
2018-06-10T10:00:51.236Z,26.39
2018-06-10T10:01:51.239Z,26.39
2018-06-10T10:02:51.477Z,26.44
2018-06-10T10:03:50.998Z,26.39
2018-06-10T10:04:51.249Z,26.47
2018-06-10T10:05:51.002Z,26.53
2018-06-10T10:06:51.258Z,26.59
2018-06-10T10:07:51.262Z,26.6
2018-06-10T10:08:51.094Z,26.54
2018-06-10T10:09:51.275Z,26.5
2018-06-10T10:10:51.281Z,26.47
2018-06-10T10:11:51.279Z,26.52
2018-06-10T10:12:51.284Z,26.52
2018-06-10T10:13:51.287Z,26.52
2018-06-10T10:14:51.531Z,26.41
2018-06-10T10:15:51.300Z,26.49
2018-06-10T10:16:50.792Z,26.34
2018-06-10T10:17:51.312Z,26.26
2018-06-10T10:18:51.315Z,26.16
2018-06-10T10:19:51.312Z,26.2
2018-06-10T10:20:51.319Z,26.2
2018-06-10T10:21:51.070Z,26.09
2018-06-10T10:22:51.334Z,26.17
2018-06-10T10:23:51.074Z,26.23
2018-06-10T10:24:51.335Z,26.27
2018-06-10T10:25:51.081Z,26.34
2018-06-10T10:26:51.343Z,26.38
2018-06-10T10:27:51.350Z,26.35
2018-06-10T10:28:51.351Z,26.45
2018-06-10T10:29:50.850Z,26.44
2018-06-10T10:30:51.118Z,26.41
2018-06-10T10:31:51.482Z,26.52
2018-06-10T10:32:51.109Z,26.47
2018-06-10T10:33:51.116Z,26.61
2018-06-10T10:34:51.120Z,26.67
2018-06-10T10:35:51.381Z,26.75
2018-06-10T10:36:51.130Z,26.93
2018-06-10T10:37:51.388Z,27.15
2018-06-10T10:38:51.400Z,27.31
2018-06-10T10:39:51.395Z,27.45
2018-06-10T10:40:51.145Z,27.52
2018-06-10T10:41:51.402Z,27.76
2018-06-10T10:42:51.414Z,27.75
2018-06-10T10:43:51.421Z,27.65
2018-06-10T10:44:51.422Z,27.66
2018-06-10T10:45:51.420Z,27.57
2018-06-10T10:46:51.428Z,27.46
2018-06-10T10:47:51.432Z,27.34
2018-06-10T10:48:51.238Z,27.16
2018-06-10T10:49:51.443Z,26.9
2018-06-10T10:50:51.186Z,26.76
2018-06-10T10:51:51.457Z,26.6
2018-06-10T10:52:51.451Z,26.64
2018-06-10T10:53:51.196Z,26.63
2018-06-10T10:54:51.214Z,26.61
2018-06-10T10:55:51.462Z,26.63
2018-06-10T10:56:51.474Z,26.61
2018-06-10T10:57:51.471Z,26.61
2018-06-10T10:58:51.224Z,26.76
2018-06-10T10:59:51.482Z,26.75
2018-06-10T11:00:51.229Z,26.76
2018-06-10T11:01:51.274Z,26.74
2018-06-10T11:02:51.497Z,26.74
2018-06-10T11:03:51.504Z,26.81
2018-06-10T11:04:51.503Z,26.99
2018-06-10T11:05:51.511Z,27.16
2018-06-10T11:06:51.518Z,27.28
2018-06-10T11:07:51.516Z,27.28
2018-06-10T11:08:51.268Z,27.11
2018-06-10T11:09:51.519Z,27.06
2018-06-10T11:10:51.275Z,26.99
2018-06-10T11:11:51.536Z,26.89
2018-06-10T11:12:51.534Z,26.81
2018-06-10T11:13:51.546Z,26.82
2018-06-10T11:14:51.681Z,26.78
2018-06-10T11:15:51.554Z,26.63
2018-06-10T11:16:51.550Z,26.49
2018-06-10T11:17:51.556Z,26.5
2018-06-10T11:18:51.304Z,26.49
2018-06-10T11:19:51.563Z,26.37
2018-06-10T11:20:51.310Z,26.37
2018-06-10T11:21:51.570Z,26.19
2018-06-10T11:22:51.582Z,26.04
2018-06-10T11:23:51.578Z,26.06
2018-06-10T11:24:51.323Z,26.04
2018-06-10T11:25:51.586Z,26.04
2018-06-10T11:26:51.600Z,25.96
2018-06-10T11:27:51.593Z,26.03
2018-06-10T11:28:51.600Z,26.17
2018-06-10T11:29:51.344Z,26.3
2018-06-10T11:30:51.601Z,26.27
2018-06-10T11:31:51.606Z,26.24
2018-06-10T11:32:51.353Z,26.26
2018-06-10T11:33:51.615Z,26.27
2018-06-10T11:34:51.623Z,26.32
2018-06-10T11:35:51.618Z,26.26
2018-06-10T11:36:51.623Z,26.24
2018-06-10T11:37:51.374Z,26.27
2018-06-10T11:38:51.637Z,26.34
2018-06-10T11:39:51.637Z,26.53
2018-06-10T11:40:51.643Z,26.54
2018-06-10T11:41:51.644Z,26.56
2018-06-10T11:42:51.648Z,26.67
2018-06-10T11:43:51.652Z,26.75
2018-06-10T11:44:51.401Z,26.81
2018-06-10T11:45:51.663Z,26.76
2018-06-10T11:46:51.662Z,26.57
2018-06-10T11:47:51.407Z,26.5
2018-06-10T11:48:51.672Z,26.56
2018-06-10T11:49:51.674Z,26.59
2018-06-10T11:50:51.679Z,26.74
2018-06-10T11:51:51.473Z,26.64
2018-06-10T11:52:51.433Z,26.68
2018-06-10T11:53:51.439Z,26.78
2018-06-10T11:54:51.438Z,26.81
2018-06-10T11:55:51.695Z,26.79
2018-06-10T11:56:51.714Z,26.68
2018-06-10T11:57:51.479Z,26.69
2018-06-10T11:58:51.704Z,26.68
2018-06-10T11:59:51.714Z,26.76
2018-06-10T12:00:51.717Z,26.61
2018-06-10T12:01:51.465Z,26.5
2018-06-10T12:02:51.725Z,26.31
2018-06-10T12:03:51.477Z,26.11
2018-06-10T12:04:51.215Z,26.03
2018-06-10T12:05:51.490Z,26.07
2018-06-10T12:06:51.739Z,26.03
2018-06-10T12:07:51.864Z,26.22
2018-06-10T12:08:51.750Z,26.32
2018-06-10T12:09:51.753Z,26.45
2018-06-10T12:10:51.918Z,26.6
2018-06-10T12:11:51.501Z,26.67
2018-06-10T12:12:51.759Z,26.68
2018-06-10T12:13:51.995Z,26.69
2018-06-10T12:14:51.776Z,26.61
2018-06-10T12:15:51.778Z,26.63
2018-06-10T12:16:51.777Z,26.78
2018-06-10T12:17:51.778Z,26.89
2018-06-10T12:18:51.271Z,26.9
2018-06-10T12:19:51.790Z,26.87
2018-06-10T12:20:51.533Z,26.81
2018-06-10T12:21:51.536Z,26.71
2018-06-10T12:22:52.116Z,26.76
2018-06-10T12:23:51.804Z,26.74
2018-06-10T12:24:51.806Z,26.82
2018-06-10T12:25:51.813Z,26.89
2018-06-10T12:26:51.815Z,27.08
2018-06-10T12:27:51.565Z,27.21
2018-06-10T12:28:51.827Z,27.36
2018-06-10T12:29:51.827Z,27.37
2018-06-10T12:30:51.844Z,27.49
2018-06-10T12:31:51.842Z,27.42
2018-06-10T12:32:51.583Z,27.42
2018-06-10T12:33:51.851Z,27.37
2018-06-10T12:34:51.854Z,27.12
2018-06-10T12:35:51.643Z,26.97
2018-06-10T12:36:51.858Z,26.81
2018-06-10T12:37:51.862Z,26.59
2018-06-10T12:38:51.869Z,26.42
2018-06-10T12:39:51.869Z,26.38
2018-06-10T12:40:51.624Z,26.26
2018-06-10T12:41:51.883Z,26.16
2018-06-10T12:42:51.882Z,25.91
2018-06-10T12:43:51.631Z,25.76
2018-06-10T12:44:51.897Z,25.59
2018-06-10T12:45:51.902Z,25.34
2018-06-10T12:46:51.907Z,25.3
2018-06-10T12:47:51.901Z,25.08
2018-06-10T12:48:51.907Z,24.97
2018-06-10T12:49:51.908Z,24.85
2018-06-10T12:50:51.914Z,24.77
2018-06-10T12:51:51.920Z,24.64
2018-06-10T12:52:51.917Z,24.59
2018-06-10T12:53:51.926Z,24.59
2018-06-10T12:54:51.925Z,24.66
2018-06-10T12:55:51.423Z,24.66
2018-06-10T12:56:51.997Z,24.83
2018-06-10T12:57:51.944Z,24.94
2018-06-10T12:58:51.683Z,24.94
2018-06-10T12:59:51.684Z,25.04
2018-06-10T13:00:51.944Z,25.19